createdAt,value
2018-12-03T00:00:25.507Z,7.73
2018-12-03T00:02:55.827Z,10.37
2018-12-03T00:05:23.990Z,9.27
2018-12-03T00:07:52.115Z,9.73
2018-12-03T00:10:20.248Z,9.50
2018-12-03T00:12:48.505Z,10.30
2018-12-03T00:15:16.624Z,10.50
2018-12-03T00:17:44.755Z,10.30
2018-12-03T00:20:12.863Z,10.67
2018-12-03T00:22:41.004Z,13.63
2018-12-03T00:25:09.340Z,12.70
2018-12-03T00:27:37.556Z,12.93
2018-12-03T00:30:08.638Z,14.93
2018-12-03T00:32:36.831Z,10.30
2018-12-03T00:35:06.351Z,12.87
2018-12-03T00:37:34.484Z,11.80
2018-12-03T00:40:02.760Z,17.10
2018-12-03T00:42:30.860Z,13.93
2018-12-03T00:44:59.024Z,14.87
2018-12-03T00:47:27.526Z,15.60
2018-12-03T00:49:55.683Z,13.50
2018-12-03T00:52:23.837Z,15.47
2018-12-03T00:54:51.996Z,15.60
2018-12-03T00:57:20.163Z,17.57
2018-12-03T00:59:48.366Z,16.87
2018-12-03T01:02:22.027Z,17.37
2018-12-03T01:04:50.199Z,17.73
2018-12-03T01:07:18.324Z,19.27
2018-12-03T01:09:46.452Z,18.67
2018-12-03T01:12:14.577Z,22.03
2018-12-03T01:14:42.723Z,19.43
2018-12-03T01:17:10.869Z,19.47
2018-12-03T01:19:38.984Z,20.93
2018-12-03T01:22:07.140Z,21.23
2018-12-03T01:24:35.991Z,18.87
2018-12-03T01:27:04.118Z,20.20
2018-12-03T01:29:32.233Z,18.60
2018-12-03T01:32:00.348Z,19.20
2018-12-03T01:34:28.519Z,18.23
2018-12-03T01:36:56.720Z,17.23
2018-12-03T01:39:24.951Z,17.67
2018-12-03T01:41:53.081Z,18.53
2018-12-03T01:44:21.219Z,20.10
2018-12-03T01:46:49.392Z,17.40
2018-12-03T01:49:17.536Z,18.33
2018-12-03T01:51:45.692Z,21.27
2018-12-03T01:54:13.927Z,18.83
2018-12-03T01:56:42.046Z,17.60
2018-12-03T01:59:10.392Z,19.67
2018-12-03T02:01:38.596Z,20.10
2018-12-03T02:04:06.744Z,18.00
2018-12-03T02:06:34.908Z,19.20
2018-12-03T02:09:03.141Z,20.50
2018-12-03T02:11:31.295Z,19.83
2018-12-03T02:13:59.420Z,22.47
2018-12-03T02:16:27.548Z,19.90
2018-12-03T02:18:55.767Z,21.00
2018-12-03T02:21:23.903Z,17.87
2018-12-03T02:23:52.007Z,22.47
2018-12-03T02:26:20.266Z,23.67
2018-12-03T02:28:48.430Z,22.90
2018-12-03T02:31:16.534Z,17.70
2018-12-03T02:33:44.650Z,19.20
2018-12-03T02:36:12.776Z,21.33
2018-12-03T02:38:40.916Z,17.83
2018-12-03T02:41:09.032Z,21.83
2018-12-03T02:43:37.192Z,21.80
2018-12-03T02:46:05.385Z,22.83
2018-12-03T02:48:33.548Z,17.00
2018-12-03T02:51:01.810Z,19.00
2018-12-03T02:53:30.008Z,19.17
2018-12-03T02:55:58.969Z,18.07
2018-12-03T02:58:27.118Z,19.33
2018-12-03T03:00:55.219Z,18.00
2018-12-03T03:03:23.349Z,19.20
2018-12-03T03:05:51.477Z,20.00
2018-12-03T03:08:19.596Z,19.60
2018-12-03T03:10:48.116Z,21.70
2018-12-03T03:13:16.252Z,23.00
2018-12-03T03:15:44.375Z,18.97
2018-12-03T03:18:12.463Z,20.30
2018-12-03T03:20:40.605Z,20.73
2018-12-03T03:23:08.751Z,19.63
2018-12-03T03:25:36.878Z,20.47
2018-12-03T03:28:05.022Z,19.07
2018-12-03T03:30:33.201Z,21.13
2018-12-03T03:33:01.334Z,20.47
2018-12-03T03:35:29.439Z,18.67
2018-12-03T03:37:57.582Z,22.80
2018-12-03T03:40:25.692Z,18.57
2018-12-03T03:42:53.849Z,20.60
2018-12-03T03:45:23.348Z,20.97
2018-12-03T03:47:51.499Z,22.27
2018-12-03T03:50:19.595Z,23.00
2018-12-03T03:52:47.747Z,17.23
2018-12-03T03:55:15.868Z,18.87
2018-12-03T03:57:45.075Z,18.63
2018-12-03T04:00:14.129Z,17.87
2018-12-03T04:02:42.244Z,17.40
2018-12-03T04:05:14.199Z,19.03
2018-12-03T04:07:43.364Z,19.13
2018-12-03T04:10:12.311Z,19.73
2018-12-03T04:12:41.129Z,20.07
2018-12-03T04:15:10.423Z,18.50
2018-12-03T04:17:38.735Z,18.97
2018-12-03T04:20:12.560Z,19.30
2018-12-03T04:22:40.744Z,21.67
2018-12-03T04:25:10.016Z,19.70
2018-12-03T04:27:38.146Z,17.13
2018-12-03T04:30:13.636Z,19.97
2018-12-03T04:32:41.768Z,16.90
2018-12-03T04:35:10.482Z,18.77
2018-12-03T04:37:38.641Z,17.97
2018-12-03T04:40:09.217Z,17.43
2018-12-03T04:42:37.616Z,16.47
2018-12-03T04:45:08.989Z,17.60
2018-12-03T04:47:37.224Z,17.20
2018-12-03T04:50:08.736Z,17.90
2018-12-03T04:52:36.837Z,16.03
2018-12-03T04:55:05.381Z,16.90
2018-12-03T04:57:33.538Z,17.23
2018-12-03T05:00:01.771Z,15.57
2018-12-03T05:02:29.898Z,15.83
2018-12-03T05:04:58.016Z,16.07
2018-12-03T05:07:26.287Z,16.40
2018-12-03T05:09:54.412Z,16.87
2018-12-03T05:12:22.724Z,16.63
2018-12-03T05:17:25.552Z,16.60
2018-12-03T05:19:53.745Z,17.50
2018-12-03T05:22:21.888Z,17.87
2018-12-03T05:24:50.020Z,19.03
2018-12-03T05:27:20.267Z,18.20
2018-12-03T05:29:48.948Z,17.33
2018-12-03T05:32:17.101Z,16.10
2018-12-03T05:34:45.332Z,17.23
2018-12-03T05:37:14.670Z,17.20
2018-12-03T05:39:42.815Z,15.60
2018-12-03T05:42:11.067Z,16.97
2018-12-03T05:45:30.262Z,16.47
2018-12-03T05:48:10.828Z,16.53
2018-12-03T05:50:51.122Z,15.90
2018-12-03T05:53:31.204Z,15.03
2018-12-03T05:56:11.659Z,15.03
2018-12-03T05:58:52.249Z,15.53
2018-12-03T06:01:32.650Z,15.60
2018-12-03T06:04:13.237Z,15.40
2018-12-03T06:06:53.415Z,15.33
2018-12-03T06:09:34.165Z,15.27
2018-12-03T06:12:14.874Z,15.13
2018-12-03T06:14:55.524Z,14.83
2018-12-03T06:17:36.422Z,15.53
2018-12-03T06:20:17.032Z,15.37
2018-12-03T06:22:57.487Z,14.97
2018-12-03T06:28:17.675Z,15.43
2018-12-03T06:31:05.162Z,16.33
2018-12-03T06:33:52.312Z,15.27
2018-12-03T06:36:39.428Z,16.50
2018-12-03T06:39:26.580Z,17.00
2018-12-03T06:42:13.826Z,16.83
2018-12-03T06:45:01.270Z,15.53
2018-12-03T06:47:48.467Z,16.67
2018-12-03T06:50:35.592Z,16.57
2018-12-03T06:53:22.766Z,18.07
2018-12-03T06:56:09.971Z,17.87
2018-12-03T06:58:57.550Z,19.43
2018-12-03T07:01:44.906Z,21.03
2018-12-03T07:04:32.034Z,17.80
2018-12-03T07:07:19.159Z,18.33
2018-12-03T07:10:06.665Z,16.40
2018-12-03T07:12:55.860Z,11.37
2018-12-03T07:15:43.040Z,11.90
2018-12-03T07:18:30.229Z,11.20
2018-12-03T07:21:17.676Z,11.30
2018-12-03T07:24:04.790Z,11.40
2018-12-03T07:26:51.912Z,11.60
2018-12-03T07:29:39.042Z,11.20
2018-12-03T07:32:26.557Z,11.07
2018-12-03T07:35:13.747Z,12.73
2018-12-03T07:38:00.863Z,9.63
2018-12-03T07:40:48.022Z,11.00
2018-12-03T07:43:35.459Z,10.27
2018-12-03T07:46:22.620Z,12.50
2018-12-03T07:49:09.750Z,11.10
2018-12-03T07:51:56.988Z,10.63
2018-12-03T07:54:44.159Z,12.73
2018-12-03T07:57:31.643Z,12.70
2018-12-03T08:00:19.020Z,12.23
2018-12-03T08:03:06.149Z,14.83
2018-12-03T08:05:53.285Z,15.30
2018-12-03T08:08:40.396Z,14.07
2018-12-03T08:11:27.799Z,16.33
2018-12-03T08:14:14.929Z,14.63
2018-12-03T08:17:02.087Z,15.23
2018-12-03T08:19:49.284Z,12.83
2018-12-03T08:22:29.743Z,14.23
2018-12-03T08:25:09.884Z,18.47
2018-12-03T08:27:50.277Z,16.37
2018-12-03T08:30:31.061Z,10.67
2018-12-03T08:33:11.789Z,14.47
2018-12-03T08:35:51.836Z,16.07
2018-12-03T08:38:32.345Z,13.90
2018-12-03T08:41:12.529Z,16.70
2018-12-03T08:43:53.018Z,17.57
2018-12-03T08:46:33.689Z,16.20
2018-12-03T08:49:14.061Z,16.97
2018-12-03T08:51:54.066Z,18.13
2018-12-03T08:54:34.222Z,16.90
2018-12-03T08:57:14.457Z,15.70
2018-12-03T08:59:55.000Z,16.13
2018-12-03T09:02:35.468Z,17.83
2018-12-03T09:05:15.993Z,14.47
2018-12-03T09:07:56.147Z,16.17
2018-12-03T09:10:36.568Z,17.93
2018-12-03T09:13:17.285Z,19.87
2018-12-03T09:15:57.481Z,16.60
2018-12-03T09:18:38.205Z,17.40
2018-12-03T09:24:01.418Z,19.93
2018-12-03T09:26:41.659Z,17.07
2018-12-03T09:29:22.169Z,17.80
2018-12-03T09:32:02.849Z,19.27
2018-12-03T09:34:43.324Z,13.37
2018-12-03T09:37:23.589Z,19.47
2018-12-03T09:40:03.978Z,27.03
2018-12-03T09:42:44.258Z,17.23
2018-12-03T09:45:24.386Z,21.43
2018-12-03T09:48:04.904Z,17.10
2018-12-03T09:50:45.443Z,14.80
2018-12-03T09:53:25.721Z,23.27
2018-12-03T09:56:05.829Z,16.73
2018-12-03T09:58:46.259Z,11.27
2018-12-03T10:01:27.298Z,20.13
2018-12-03T10:04:07.370Z,19.10
2018-12-03T10:06:47.598Z,18.03
2018-12-03T10:09:28.312Z,23.23
2018-12-03T10:12:08.486Z,25.53
2018-12-03T10:14:49.221Z,20.13
2018-12-03T10:17:30.035Z,23.03
2018-12-03T10:20:10.160Z,19.27
2018-12-03T10:22:51.005Z,19.43
2018-12-03T10:25:31.172Z,21.97
2018-12-03T10:28:11.516Z,16.97
2018-12-03T10:30:51.872Z,22.53
2018-12-03T10:33:32.573Z,22.43
2018-12-03T10:36:13.436Z,20.77
2018-12-03T10:38:53.425Z,17.63
2018-12-03T10:41:35.763Z,22.83
2018-12-03T10:44:16.690Z,26.20
2018-12-03T10:46:56.856Z,18.70
2018-12-03T10:49:37.086Z,23.97
2018-12-03T10:52:17.798Z,18.87
2018-12-03T10:54:57.981Z,21.83
2018-12-03T10:57:37.972Z,18.70
2018-12-03T11:00:20.553Z,24.50
2018-12-03T11:03:01.225Z,19.70
2018-12-03T11:06:01.174Z,18.03
2018-12-03T11:08:41.738Z,24.80
2018-12-03T11:11:22.202Z,24.93
2018-12-03T11:14:02.929Z,20.53
2018-12-03T11:16:43.201Z,19.53
2018-12-03T11:19:24.001Z,21.90
2018-12-03T11:22:04.574Z,25.53
2018-12-03T11:24:47.550Z,21.07
2018-12-03T11:27:28.591Z,22.47
2018-12-03T11:30:08.885Z,24.23
2018-12-03T11:32:49.444Z,18.40
2018-12-03T11:35:29.711Z,20.30
2018-12-03T11:38:10.241Z,17.17
2018-12-03T11:40:50.944Z,14.57
2018-12-03T11:43:31.585Z,22.00
2018-12-03T11:46:11.570Z,20.57
2018-12-03T11:48:51.733Z,19.43
2018-12-03T11:51:32.117Z,21.50
2018-12-03T12:00:14.970Z,25.73
2018-12-03T12:02:55.522Z,19.07
2018-12-03T12:05:36.161Z,18.50
2018-12-03T12:08:16.555Z,21.20
2018-12-03T12:10:57.083Z,24.17
2018-12-03T12:13:37.293Z,24.40
2018-12-03T12:16:18.041Z,20.53
2018-12-03T12:18:58.127Z,18.20
2018-12-03T12:21:38.673Z,20.83
2018-12-03T12:24:19.122Z,21.87
2018-12-03T12:26:59.273Z,20.00
2018-12-03T12:29:39.973Z,23.97
2018-12-03T12:32:20.156Z,18.17
2018-12-03T12:35:00.205Z,23.70
2018-12-03T12:37:40.452Z,18.80
2018-12-03T12:40:07.995Z,20.90
2018-12-03T12:42:55.115Z,22.57
2018-12-03T12:45:42.269Z,19.57
2018-12-03T12:48:29.406Z,20.20
2018-12-03T12:51:16.644Z,20.90
2018-12-03T12:54:03.867Z,21.27
2018-12-03T12:56:51.027Z,20.33
2018-12-03T12:59:38.341Z,22.67
2018-12-03T13:02:25.478Z,19.47
2018-12-03T13:05:12.977Z,21.20
2018-12-03T13:08:00.106Z,22.13
2018-12-03T13:10:47.245Z,23.03
2018-12-03T13:13:34.511Z,23.63
2018-12-03T13:16:21.836Z,22.27
2018-12-03T13:19:08.991Z,18.60
2018-12-03T13:21:56.157Z,20.17
2018-12-03T13:24:43.368Z,23.13
2018-12-03T13:27:30.669Z,21.57
2018-12-03T13:30:18.225Z,22.10
2018-12-03T13:33:05.857Z,19.70
2018-12-03T13:35:53.053Z,21.63
2018-12-03T13:38:40.185Z,27.03
2018-12-03T13:41:27.379Z,17.57
2018-12-03T13:44:14.600Z,23.30
2018-12-03T13:47:01.806Z,20.00
2018-12-03T13:49:49.172Z,23.63
2018-12-03T13:52:36.333Z,22.37
2018-12-03T13:55:23.464Z,22.60
2018-12-03T13:58:10.681Z,23.47
2018-12-03T14:00:52.841Z,23.83
2018-12-03T14:03:21.959Z,27.60
2018-12-03T14:06:02.512Z,19.37
2018-12-03T14:08:42.876Z,22.53
2018-12-03T14:11:23.395Z,23.03
2018-12-03T14:14:03.564Z,23.27
2018-12-03T14:16:31.313Z,25.60
2018-12-03T14:19:18.451Z,15.80
2018-12-03T14:22:05.566Z,21.17
2018-12-03T14:24:53.386Z,22.43
2018-12-03T14:27:40.568Z,18.37
2018-12-03T14:30:27.941Z,19.07
2018-12-03T14:33:15.353Z,23.67
2018-12-03T14:36:02.485Z,23.07
2018-12-03T14:38:50.123Z,26.27
2018-12-03T14:41:37.257Z,26.57
2018-12-03T14:44:24.557Z,25.73
2018-12-03T14:47:11.966Z,23.60
2018-12-03T14:49:59.103Z,25.47
2018-12-03T14:52:58.600Z,26.93
2018-12-03T14:55:35.791Z,25.80
2018-12-03T14:58:22.895Z,21.70
2018-12-03T15:01:10.055Z,22.87
2018-12-03T15:03:57.154Z,26.77
2018-12-03T15:06:44.365Z,23.80
2018-12-03T15:09:31.553Z,27.47
2018-12-03T15:12:40.018Z,23.30
2018-12-03T15:18:35.766Z,23.33
2018-12-03T15:21:22.976Z,25.43
2018-12-03T15:24:13.357Z,20.33
2018-12-03T15:30:07.209Z,24.20
2018-12-03T15:32:54.421Z,28.57
2018-12-03T15:35:41.609Z,23.50
2018-12-03T15:38:28.766Z,24.67
2018-12-03T15:40:56.297Z,32.40
2018-12-03T15:43:43.689Z,27.77
2018-12-03T15:46:24.433Z,20.10
2018-12-03T15:49:04.793Z,29.23
2018-12-03T15:51:45.305Z,27.13
2018-12-03T15:54:26.425Z,22.23
2018-12-03T15:56:54.166Z,26.30
2018-12-03T15:59:41.427Z,28.33
2018-12-03T16:02:28.579Z,23.43
2018-12-03T16:05:15.775Z,21.37
2018-12-03T16:08:02.964Z,24.60
2018-12-03T16:10:50.199Z,25.97
2018-12-03T16:13:38.312Z,20.97
2018-12-03T16:16:27.237Z,31.27
2018-12-03T16:18:54.958Z,22.83
2018-12-03T16:21:22.429Z,24.30
2018-12-03T16:23:49.877Z,20.23
2018-12-03T16:26:17.471Z,24.30
2018-12-03T16:28:44.977Z,24.53
2018-12-03T16:31:12.478Z,23.47
2018-12-03T16:33:59.597Z,24.03
2018-12-03T16:36:46.789Z,26.97
2018-12-03T16:39:34.027Z,24.53
2018-12-03T16:42:21.203Z,27.00
2018-12-03T16:45:08.350Z,26.53
2018-12-03T16:47:55.601Z,23.33
2018-12-03T16:50:42.706Z,25.53
2018-12-03T16:53:29.844Z,27.77
2018-12-03T16:59:23.849Z,27.67
2018-12-03T17:02:32.303Z,27.10
2018-12-03T17:08:25.808Z,21.77
2018-12-03T17:11:12.936Z,24.17
2018-12-03T17:14:00.159Z,32.60
2018-12-03T17:16:47.469Z,26.27
2018-12-03T17:19:34.861Z,29.07
2018-12-03T17:22:22.005Z,27.87
2018-12-03T17:25:09.225Z,27.37
2018-12-03T17:27:56.405Z,30.47
2018-12-03T17:30:55.693Z,26.93
2018-12-03T17:33:34.968Z,28.87
2018-12-03T17:36:22.731Z,28.60
2018-12-03T17:39:10.009Z,31.20
2018-12-03T17:41:57.184Z,22.53
2018-12-03T17:44:44.645Z,23.57
2018-12-03T17:50:29.158Z,26.57
2018-12-03T17:52:57.033Z,27.37
2018-12-03T17:55:44.244Z,26.13
2018-12-03T17:58:32.663Z,24.23
2018-12-03T18:01:19.903Z,25.63
2018-12-03T18:07:01.733Z,23.67
2018-12-03T18:09:48.978Z,22.53
2018-12-03T18:12:36.347Z,20.73
2018-12-03T18:18:19.446Z,31.03
2018-12-03T18:21:07.139Z,28.00
2018-12-03T18:23:54.290Z,28.40
2018-12-03T18:26:41.705Z,25.97
2018-12-03T18:29:29.025Z,20.97
2018-12-03T18:31:56.502Z,23.93
2018-12-03T18:34:43.977Z,27.70
2018-12-03T18:37:31.111Z,27.13
2018-12-03T18:40:18.233Z,24.87
2018-12-03T18:43:05.449Z,30.87
2018-12-03T18:45:52.652Z,30.23
2018-12-03T18:48:40.003Z,33.73
2018-12-03T18:51:30.107Z,28.30
2018-12-03T18:54:17.378Z,28.73
2018-12-03T18:57:05.040Z,30.53
2018-12-03T18:59:52.210Z,29.43
2018-12-03T19:02:39.398Z,28.03
2018-12-03T19:05:26.533Z,26.03
2018-12-03T19:08:13.894Z,28.53
2018-12-03T19:11:24.773Z,31.37
2018-12-03T19:14:12.069Z,27.83
2018-12-03T19:16:59.316Z,24.07
2018-12-03T19:19:46.523Z,31.23
2018-12-03T19:22:33.750Z,28.53
2018-12-03T19:25:21.201Z,26.77
2018-12-03T19:28:08.389Z,30.20
2018-12-03T19:30:36.223Z,32.43
2018-12-03T19:33:43.154Z,26.20
2018-12-03T19:39:33.125Z,26.60
2018-12-03T19:42:08.514Z,22.93
2018-12-03T19:44:36.196Z,25.77
2018-12-03T19:47:23.527Z,30.77
2018-12-03T19:50:10.746Z,28.70
2018-12-03T19:53:00.596Z,30.03
2018-12-03T19:55:47.773Z,29.83
2018-12-03T19:58:34.961Z,29.70
2018-12-03T20:01:22.077Z,33.73
2018-12-03T20:04:30.763Z,31.83
2018-12-03T20:07:17.889Z,30.97
2018-12-03T20:10:05.819Z,30.37
2018-12-03T20:13:06.764Z,35.37
2018-12-03T20:15:56.983Z,25.40
2018-12-03T20:18:31.859Z,26.47
2018-12-03T20:21:19.057Z,28.27
2018-12-03T20:24:06.509Z,29.40
2018-12-03T20:26:54.104Z,27.50
2018-12-03T20:29:41.309Z,26.13
2018-12-03T20:32:28.519Z,23.70
2018-12-03T20:35:15.661Z,27.57
2018-12-03T20:38:02.979Z,31.30
2018-12-03T20:40:50.223Z,34.60
2018-12-03T20:46:45.897Z,23.50
2018-12-03T20:49:33.297Z,28.63
2018-12-03T20:52:20.753Z,26.50
2018-12-03T20:55:40.956Z,29.67
2018-12-03T21:01:25.099Z,26.50
2018-12-03T21:04:12.325Z,25.90
2018-12-03T21:06:59.709Z,21.97
2018-12-03T21:09:59.346Z,24.77
2018-12-03T21:12:36.522Z,28.53
2018-12-03T21:15:17.137Z,24.93
2018-12-03T21:17:59.198Z,27.03
2018-12-03T21:20:26.852Z,24.73
2018-12-03T21:23:36.665Z,19.87
2018-12-03T21:30:01.334Z,15.43
2018-12-03T21:38:56.692Z,15.47
2018-12-03T21:41:43.808Z,16.47
2018-12-03T21:44:31.033Z,15.07
2018-12-03T21:47:18.349Z,9.17
2018-12-03T21:50:07.251Z,6.43
2018-12-03T21:52:54.998Z,7.67
2018-12-03T21:55:42.140Z,7.90
2018-12-03T21:58:29.369Z,6.37
2018-12-03T22:01:16.508Z,5.20
2018-12-03T22:04:03.622Z,7.80
2018-12-03T22:06:50.773Z,8.43
2018-12-03T22:09:38.188Z,5.90
2018-12-03T22:12:25.421Z,7.10
2018-12-03T22:15:12.653Z,7.13
2018-12-03T22:17:59.759Z,7.23
2018-12-03T22:20:46.888Z,6.27
2018-12-03T22:23:33.997Z,6.13
2018-12-03T22:26:21.124Z,6.83
2018-12-03T22:29:08.278Z,5.10
2018-12-03T22:31:55.647Z,5.83
2018-12-03T22:34:42.776Z,5.60
2018-12-03T22:37:29.920Z,3.70
2018-12-03T22:40:17.433Z,5.27
2018-12-03T22:43:04.912Z,5.60
2018-12-03T22:45:52.017Z,5.83
2018-12-03T22:48:39.244Z,5.03
2018-12-03T22:51:26.353Z,6.33
2018-12-03T22:54:13.502Z,5.73
2018-12-03T22:56:40.930Z,7.60
2018-12-03T22:59:28.063Z,6.43
2018-12-03T23:02:15.302Z,6.87
2018-12-03T23:05:02.501Z,7.23
2018-12-03T23:07:49.736Z,6.97
2018-12-03T23:10:37.179Z,7.73
2018-12-03T23:13:24.286Z,7.93
2018-12-03T23:16:11.665Z,9.83
2018-12-03T23:18:58.784Z,5.97
2018-12-03T23:21:45.920Z,7.27
2018-12-03T23:24:33.108Z,10.67
2018-12-03T23:27:20.225Z,12.13
2018-12-03T23:30:07.725Z,10.00
2018-12-03T23:32:54.830Z,8.57
2018-12-03T23:35:41.968Z,8.13
2018-12-03T23:38:29.095Z,9.30
2018-12-03T23:41:16.268Z,9.60
2018-12-03T23:44:03.376Z,9.57
2018-12-03T23:46:50.843Z,8.87
2018-12-03T23:49:38.265Z,8.17
2018-12-03T23:52:25.412Z,9.80
2018-12-03T23:55:12.702Z,10.10
2018-12-03T23:57:59.887Z,8.47
